Time;durP1;ratioP1;P1;durP2;ratioP2;P2;SDS_P1;SDS_P2;PMS_P1;PMS_P2;Temp;Humidity;BMP_temperature;BMP_pressure;BME280_temperature;BME280_humidity;BME280_pressure;Samples;Min_cycle;Max_cycle;Signal;HPM_P1;HPM_P2
2022/07/25 00:02:14;;;;;;;7.37;3.30;;;;;;;-143.84;84.13;45033.84;5111389;28;20508;-73
2022/07/25 00:04:42;;;;;;;17.43;4.03;;;;;;;-143.84;84.60;45039.53;5111285;28;20467;-73
2022/07/25 00:07:09;;;;;;;4.27;3.27;;;;;;;-143.84;84.91;45010.97;5111299;28;20858;-73
2022/07/25 00:09:36;;;;;;;6.60;3.00;;;;;;;-143.84;84.94;45014.78;5111606;28;20431;-73
2022/07/25 00:12:12;;;;;;;6.77;3.60;;;;;;;-143.84;85.16;44978.63;5110919;28;20949;-73
2022/07/25 00:14:41;;;;;;;15.80;3.47;;;;;;;-143.84;84.77;44999.56;5110953;28;20489;-73
2022/07/25 00:17:08;;;;;;;7.53;3.03;;;;;;;-143.84;84.66;45039.53;5111095;28;20439;-73
2022/07/25 00:19:35;;;;;;;7.97;3.83;;;;;;;-143.84;84.55;45033.84;5111143;28;20508;-73
2022/07/25 00:22:02;;;;;;;3.70;3.23;;;;;;;-143.84;84.12;45026.22;5110879;28;20527;-73
2022/07/25 00:24:29;;;;;;;11.13;3.20;;;;;;;-143.84;83.80;45007.19;5111104;28;20450;-73
2022/07/25 00:26:57;;;;;;;5.03;3.40;;;;;;;-143.84;83.43;45045.25;5111260;28;20455;-73
2022/07/25 00:29:24;;;;;;;4.70;3.50;;;;;;;-143.84;83.26;45037.66;5111024;28;20492;-73
2022/07/25 00:31:52;;;;;;;8.17;3.30;;;;;;;-143.84;83.41;45007.19;5111486;28;20445;-73
2022/07/25 00:34:19;;;;;;;3.60;3.30;;;;;;;-143.84;83.72;45033.84;5111579;28;20494;-73
2022/07/25 00:36:47;;;;;;;9.53;4.33;;;;;;;-143.84;83.87;45020.50;5111445;28;20447;-73
2022/07/25 00:39:14;;;;;;;4.60;3.27;;;;;;;-143.84;84.25;45047.16;5111086;28;20442;-73
2022/07/25 00:41:43;;;;;;;3.43;3.23;;;;;;;-143.84;84.46;45049.06;5110872;28;20435;-73
2022/07/25 00:44:10;;;;;;;8.10;2.60;;;;;;;-143.84;84.52;45022.41;5110788;28;20527;-73
2022/07/25 00:46:39;;;;;;;4.57;4.03;;;;;;;-143.84;84.84;45030.03;5111333;28;20477;-73
2022/07/25 00:49:07;;;;;;;5.67;3.57;;;;;;;-143.84;85.03;45014.78;5110735;28;20423;-73
2022/07/25 00:51:34;;;;;;;3.40;3.10;;;;;;;-143.84;84.97;45037.66;5110065;28;20450;-73
2022/07/25 00:54:02;;;;;;;4.57;3.03;;;;;;;-143.84;85.24;45039.53;5110440;28;20442;-73
2022/07/25 00:56:29;;;;;;;3.13;2.83;;;;;;;-143.84;86.27;45024.31;5111053;28;20431;-73
2022/07/25 00:58:56;;;;;;;3.30;3.00;;;;;;;-143.84;87.35;45049.06;5110889;28;21004;-73
2022/07/25 01:01:23;;;;;;;8.73;3.40;;;;;;;-143.84;88.97;45010.97;5110620;28;20439;-73
2022/07/25 01:03:51;;;;;;;11.07;3.50;;;;;;;-143.84;89.55;45041.44;5110457;28;20443;-73
2022/07/25 01:06:21;;;;;;;7.50;3.13;;;;;;;-143.84;90.32;45039.53;5110502;28;20508;-73
2022/07/25 01:08:48;;;;;;;6.00;3.60;;;;;;;-143.84;90.40;45035.75;5110615;28;21261;-73
2022/07/25 01:11:16;;;;;;;7.57;3.83;;;;;;;-143.84;90.49;45018.59;5109919;28;20476;-74
2022/07/25 01:13:43;;;;;;;12.57;4.70;;;;;;;-143.84;90.53;45020.50;5109453;28;20448;-74
2022/07/25 01:16:10;;;;;;;3.63;3.30;;;;;;;-143.84;90.49;45018.59;5109332;28;21387;-73
2022/07/25 01:18:37;;;;;;;13.70;4.50;;;;;;;-143.84;90.90;45037.66;5109584;28;20500;-73
2022/07/25 01:21:07;;;;;;;9.27;4.13;;;;;;;-143.84;91.17;45028.13;5109892;28;20825;-74
2022/07/25 01:23:34;;;;;;;11.30;4.10;;;;;;;-143.84;90.69;45024.31;5110109;28;20501;-74
2022/07/25 01:26:01;;;;;;;5.80;3.60;;;;;;;-143.84;90.16;45028.13;5109990;28;20446;-74
2022/07/25 01:28:29;;;;;;;6.80;4.10;;;;;;;-143.84;90.25;45030.03;5110014;28;20439;-74
2022/07/25 01:30:56;;;;;;;7.53;3.70;;;;;;;-143.84;90.41;45031.94;5110103;28;20438;-73
2022/07/25 01:33:23;;;;;;;13.50;5.47;;;;;;;-143.84;90.46;45041.44;5109626;28;20439;-73
2022/07/25 01:35:50;;;;;;;7.30;4.10;;;;;;;-143.84;89.80;45026.22;5109736;28;20491;-74
2022/07/25 01:38:19;;;;;;;4.40;4.10;;;;;;;-143.84;88.64;45037.66;5110129;28;20464;-73
2022/07/25 01:40:46;;;;;;;9.07;4.20;;;;;;;-143.84;88.00;45066.22;5109867;28;20446;-74
2022/07/25 01:43:14;;;;;;;13.80;4.77;;;;;;;-143.84;87.70;45014.78;5109809;28;20446;-73
2022/07/25 01:45:41;;;;;;;5.13;4.03;;;;;;;-143.84;87.92;45010.97;5110011;28;20423;-73
2022/07/25 01:48:09;;;;;;;8.43;4.03;;;;;;;-143.84;87.71;45041.44;5109686;28;20451;-73
2022/07/25 01:50:36;;;;;;;7.03;5.20;;;;;;;-143.84;87.70;45031.94;5109527;28;20501;-73
2022/07/25 01:53:03;;;;;;;8.80;6.00;;;;;;;-143.84;87.86;45030.03;5109527;28;20492;-73
2022/07/25 01:55:31;;;;;;;9.07;5.20;;;;;;;-143.84;87.43;45020.50;5109448;28;20486;-73
2022/07/25 01:57:59;;;;;;;12.03;4.77;;;;;;;-143.84;86.92;45028.13;5109896;28;20512;-73
2022/07/25 02:00:26;;;;;;;4.87;4.57;;;;;;;-143.84;84.99;45047.16;5109676;28;20492;-73
2022/07/25 02:03:28;;;;;;;4.70;4.30;;;;;;;-143.84;82.90;45056.69;5108690;28;20877;-73
2022/07/25 02:05:40;;;;;;;4.70;3.40;;;;;;;-143.84;81.08;45052.88;5109219;28;20439;-73
2022/07/25 02:08:07;;;;;;;5.23;3.70;;;;;;;-143.84;78.18;45039.53;5109588;28;20443;-73
2022/07/25 02:10:36;;;;;;;9.07;3.70;;;;;;;-143.84;76.37;45035.75;5109754;28;20449;-73
2022/07/25 02:13:03;;;;;;;3.53;3.33;;;;;;;-143.84;76.41;45024.31;5110182;28;20848;-73
2022/07/25 02:15:31;;;;;;;4.93;3.50;;;;;;;-143.84;75.07;45049.06;5109488;28;20479;-73
2022/07/25 02:17:58;;;;;;;5.83;3.80;;;;;;;-143.84;74.59;45045.25;5108978;28;20454;-73
2022/07/25 02:20:26;;;;;;;14.53;3.60;;;;;;;-143.84;73.88;45030.03;5109833;28;20504;-73
2022/07/25 02:22:53;;;;;;;8.30;3.80;;;;;;;-143.84;73.44;45024.31;5109859;28;20486;-73
2022/07/25 02:25:20;;;;;;;3.87;3.50;;;;;;;-143.84;72.89;45031.94;5109361;28;20434;-73
2022/07/25 02:27:49;;;;;;;5.50;3.70;;;;;;;-143.84;72.19;45033.84;5109303;28;20441;-73
2022/07/25 02:30:16;;;;;;;10.70;4.63;;;;;;;-143.84;72.20;45035.75;5108803;28;20434;-73
2022/07/25 02:32:43;;;;;;;15.10;3.67;;;;;;;-143.84;72.31;45024.31;5109636;28;21015;-73
2022/07/25 02:35:10;;;;;;;5.20;3.43;;;;;;;-143.84;72.82;45039.53;5109781;28;20537;-73
2022/07/25 02:37:38;;;;;;;7.87;4.20;;;;;;;-143.84;73.15;45031.94;5109954;28;20504;-73
2022/07/25 02:40:06;;;;;;;10.67;3.53;;;;;;;-143.84;73.30;45030.03;5110103;28;20438;-73
2022/07/25 02:42:33;;;;;;;3.63;3.43;;;;;;;-143.84;73.27;45054.78;5109590;28;20496;-73
2022/07/25 02:45:02;;;;;;;3.97;3.53;;;;;;;-143.84;73.56;45047.16;5109470;28;20799;-73
2022/07/25 02:47:29;;;;;;;4.03;3.73;;;;;;;-143.84;73.95;45035.75;5109353;28;20443;-73
2022/07/25 02:49:56;;;;;;;6.33;4.43;;;;;;;-143.84;74.22;45056.69;5109769;28;20435;-73
2022/07/25 02:52:24;;;;;;;5.03;4.63;;;;;;;-143.84;74.30;45047.16;5109482;28;20944;-73
2022/07/25 02:54:51;;;;;;;7.07;4.37;;;;;;;-143.84;74.78;45033.84;5109677;28;20599;-73
2022/07/25 02:57:18;;;;;;;4.77;4.27;;;;;;;-143.84;74.86;45039.53;5109793;28;20439;-73
2022/07/25 02:59:45;;;;;;;6.03;5.43;;;;;;;-143.84;75.70;45033.84;5108933;28;20481;-72
2022/07/25 03:02:14;;;;;;;8.63;4.93;;;;;;;-143.84;76.88;45026.22;5109315;28;20439;-72
2022/07/25 03:04:41;;;;;;;11.60;6.20;;;;;;;-143.84;78.06;45047.16;5109475;28;20451;-72
2022/07/25 03:07:08;;;;;;;15.33;7.10;;;;;;;-143.84;78.60;45039.53;5109439;28;20426;-73
2022/07/25 03:09:35;;;;;;;8.23;6.83;;;;;;;-143.84;79.16;45050.97;5088085;28;20448;-73
2022/07/25 03:12:03;;;;;;;7.50;6.40;;;;;;;-143.84;79.26;45024.31;5088702;28;20455;-73
2022/07/25 03:14:30;;;;;;;7.00;6.10;;;;;;;-143.84;79.85;45047.16;5092473;28;20913;-73
2022/07/25 03:16:57;;;;;;;10.60;6.70;;;;;;;-143.84;80.02;45030.03;5092126;28;20475;-73
2022/07/25 03:19:26;;;;;;;9.87;7.00;;;;;;;-143.84;80.23;45054.78;5092067;28;20798;-73
2022/07/25 03:21:53;;;;;;;10.90;6.33;;;;;;;-143.84;80.13;45045.25;5091786;28;20492;-73
2022/07/25 03:24:20;;;;;;;26.73;7.60;;;;;;;-143.84;80.47;45049.06;5091601;28;20460;-73
2022/07/25 03:26:47;;;;;;;19.27;7.60;;;;;;;-143.84;79.97;45041.44;5091758;28;20839;-73
2022/07/25 03:29:14;;;;;;;9.43;6.60;;;;;;;-143.84;79.74;45052.88;5091352;28;20500;-74
2022/07/25 03:31:41;;;;;;;8.20;7.40;;;;;;;-143.84;79.79;45062.41;5091541;28;20448;-73
2022/07/25 03:34:08;;;;;;;11.13;6.47;;;;;;;-143.84;79.22;45016.69;5091700;28;20444;-73
2022/07/25 03:36:37;;;;;;;9.60;7.27;;;;;;;-143.84;78.91;45020.50;5091411;28;20483;-74
2022/07/25 03:39:04;;;;;;;14.37;7.40;;;;;;;-143.84;78.74;45020.50;5091557;28;20444;-73
2022/07/25 03:41:31;;;;;;;9.60;7.60;;;;;;;-143.84;78.57;45058.59;5092202;28;21111;-73
2022/07/25 03:43:59;;;;;;;9.60;7.73;;;;;;;-143.84;78.67;45018.59;5091557;28;20953;-73
2022/07/25 03:46:26;;;;;;;14.67;7.40;;;;;;;-143.84;78.34;45047.16;5092386;28;20440;-73
2022/07/25 03:48:54;;;;;;;14.33;7.37;;;;;;;-143.84;77.19;45066.22;5091975;28;20436;-73
2022/07/25 03:51:21;;;;;;;12.77;7.57;;;;;;;-143.84;76.78;45050.97;5091515;28;20493;-73
2022/07/25 03:56:31;;;;;;;8.43;7.50;;;;;;;-143.84;76.97;45030.03;5087370;28;20536;-73
2022/07/25 03:58:59;;;;;;;8.53;7.13;;;;;;;-143.84;77.17;45073.81;5091959;28;20432;-73
2022/07/25 04:01:26;;;;;;;7.60;6.50;;;;;;;-143.84;76.85;45043.34;5091890;28;20436;-73
2022/07/25 04:03:53;;;;;;;11.50;6.80;;;;;;;-143.84;77.34;45050.97;5092221;28;20432;-73
2022/07/25 04:06:22;;;;;;;10.23;6.20;;;;;;;-143.84;77.16;45026.22;5091822;28;20432;-71
2022/07/25 04:08:50;;;;;;;6.33;5.50;;;;;;;-143.84;76.81;45037.66;5090882;28;20459;-71
2022/07/25 04:11:18;;;;;;;8.73;5.90;;;;;;;-143.84;77.49;45014.78;5090873;28;20496;-71
2022/07/25 04:13:45;;;;;;;14.80;7.13;;;;;;;-143.84;77.29;45001.47;5090558;28;20493;-72
2022/07/25 04:16:13;;;;;;;7.03;6.43;;;;;;;-143.84;77.19;45009.09;5090616;28;20483;-72
2022/07/25 04:18:40;;;;;;;6.73;5.83;;;;;;;-143.84;77.26;45045.25;5091033;28;20447;-72
2022/07/25 04:21:07;;;;;;;10.77;5.60;;;;;;;-143.84;77.36;45045.25;5090312;28;20428;-72
2022/07/25 04:23:35;;;;;;;6.53;5.90;;;;;;;-143.84;76.93;45056.69;5090285;28;20487;-72
2022/07/25 04:26:04;;;;;;;9.70;6.40;;;;;;;-143.84;76.44;45041.44;5089660;28;20444;-72
2022/07/25 04:28:32;;;;;;;8.63;5.20;;;;;;;-143.84;76.31;45037.66;5090406;28;20447;-72
2022/07/25 04:30:59;;;;;;;10.73;5.83;;;;;;;-143.84;75.64;45030.03;5090327;28;20535;-72
2022/07/25 04:33:26;;;;;;;6.40;5.80;;;;;;;-143.84;76.03;45028.13;5090313;28;20501;-72
2022/07/25 04:35:53;;;;;;;12.93;5.30;;;;;;;-143.84;75.64;45026.22;5090242;28;20528;-72
2022/07/25 04:38:20;;;;;;;8.33;5.17;;;;;;;-143.84;74.87;45024.31;5090249;28;20440;-72
2022/07/25 04:40:49;;;;;;;10.00;5.93;;;;;;;-143.84;74.50;45035.75;5089771;28;20444;-71
2022/07/25 04:43:20;;;;;;;8.33;5.37;;;;;;;-143.84;74.43;45026.22;5089942;28;20431;-71
2022/07/25 04:45:47;;;;;;;6.50;5.87;;;;;;;-143.84;74.17;45007.19;5089979;28;20444;-71
2022/07/25 04:48:14;;;;;;;9.83;5.00;;;;;;;-143.84;73.91;45039.53;5090199;28;20501;-71
2022/07/25 04:50:41;;;;;;;9.70;5.40;;;;;;;-143.84;73.78;45041.44;5090609;28;20428;-71
2022/07/25 04:53:09;;;;;;;11.03;5.67;;;;;;;-143.84;73.48;45024.31;5090007;28;20971;-71
2022/07/25 04:55:37;;;;;;;21.93;5.83;;;;;;;-143.84;73.58;45010.97;5089845;28;20560;-71
2022/07/25 04:58:05;;;;;;;6.77;5.10;;;;;;;-143.84;73.20;44993.84;5090016;28;20483;-71
2022/07/25 05:00:33;;;;;;;7.97;5.00;;;;;;;-143.84;72.55;45018.59;5089704;28;20497;-72
2022/07/25 05:03:00;;;;;;;6.30;5.30;;;;;;;-143.84;72.11;45037.66;5089650;28;20447;-71
2022/07/25 05:05:28;;;;;;;12.90;4.80;;;;;;;-143.84;71.77;45035.75;5090028;28;20455;-71
2022/07/25 05:07:57;;;;;;;5.60;5.07;;;;;;;-143.84;71.61;45033.84;5089545;28;20440;-71
2022/07/25 05:10:24;;;;;;;9.70;4.50;;;;;;;-143.84;71.86;45028.13;5088865;28;20456;-72
2022/07/25 05:12:52;;;;;;;10.23;5.90;;;;;;;-143.84;72.59;45026.22;5089669;28;20448;-72
2022/07/25 05:15:19;;;;;;;8.90;5.93;;;;;;;-143.84;72.71;45031.94;5089627;28;20436;-71
2022/07/25 05:17:48;;;;;;;6.13;5.60;;;;;;;-143.84;72.87;45003.38;5090161;28;20468;-71
2022/07/25 05:20:15;;;;;;;7.17;5.43;;;;;;;-143.84;73.21;45031.94;5089812;28;20483;-72
2022/07/25 05:22:42;;;;;;;8.27;5.50;;;;;;;-143.84;73.25;45024.31;5089913;28;20968;-72
2022/07/25 05:25:11;;;;;;;8.87;7.00;;;;;;;-143.84;73.62;45030.03;5089785;28;20436;-72
2022/07/25 05:27:39;;;;;;;11.43;6.80;;;;;;;-143.84;73.93;45007.19;5089504;28;20452;-72
2022/07/25 05:30:08;;;;;;;11.80;7.33;;;;;;;-143.84;74.44;45014.78;5089827;28;20440;-72
2022/07/25 05:32:35;;;;;;;11.60;7.40;;;;;;;-143.84;74.78;45030.03;5089647;28;20448;-72
2022/07/25 05:35:06;;;;;;;12.47;7.57;;;;;;;-143.84;75.30;45035.75;5088998;28;20987;-72
2022/07/25 05:37:34;;;;;;;9.60;8.60;;;;;;;-143.84;75.65;45020.50;5087779;28;20576;-72
2022/07/25 05:40:01;;;;;;;15.50;8.50;;;;;;;-143.84;75.75;44997.66;5088761;28;20457;-72
2022/07/25 05:42:29;;;;;;;15.60;8.80;;;;;;;-143.84;76.18;45047.16;5089296;28;20454;-72
2022/07/25 05:44:56;;;;;;;14.33;9.37;;;;;;;-143.84;76.26;45035.75;5089272;28;20493;-72
2022/07/25 05:47:23;;;;;;;14.50;9.60;;;;;;;-143.84;76.27;45030.03;5089293;28;20451;-73
2022/07/25 05:49:50;;;;;;;14.33;8.97;;;;;;;-143.84;76.82;45030.03;5089409;28;20443;-73
2022/07/25 05:52:19;;;;;;;12.93;9.03;;;;;;;-143.84;77.12;45030.03;5089723;28;20822;-72
2022/07/25 05:54:46;;;;;;;13.07;9.00;;;;;;;-143.84;76.98;45003.38;5089242;28;20447;-72
2022/07/25 05:57:13;;;;;;;15.47;9.53;;;;;;;-143.84;76.86;45030.03;5089632;28;20540;-72
2022/07/25 05:59:40;;;;;;;11.47;10.00;;;;;;;-143.84;76.47;45030.03;5089693;28;20443;-73
2022/07/25 06:02:09;;;;;;;10.33;9.00;;;;;;;-143.84;76.14;45020.50;5089036;28;20509;-73
2022/07/25 06:04:36;;;;;;;16.70;9.10;;;;;;;-143.84;76.09;45022.41;5089232;28;20814;-73
2022/07/25 06:07:03;;;;;;;11.77;8.30;;;;;;;-143.84;75.66;44999.56;5089131;28;20458;-73
2022/07/25 06:09:32;;;;;;;16.57;9.93;;;;;;;-143.84;75.29;45024.31;5088726;28;20485;-72
2022/07/25 06:11:59;;;;;;;9.13;8.13;;;;;;;-143.84;74.73;45026.22;5089033;28;20440;-72
2022/07/25 06:14:27;;;;;;;16.63;9.23;;;;;;;-143.84;74.85;45033.84;5088930;28;20443;-72
2022/07/25 06:16:54;;;;;;;13.50;7.77;;;;;;;-143.84;74.28;45014.78;5088665;28;20479;-72
2022/07/25 06:19:22;;;;;;;11.30;8.27;;;;;;;-143.84;73.01;45003.38;5088673;28;20435;-72
2022/07/25 06:21:49;;;;;;;10.97;8.33;;;;;;;-143.84;72.71;45016.69;5088535;28;20483;-72
2022/07/25 06:24:16;;;;;;;9.03;8.23;;;;;;;-143.84;72.30;45026.22;5087934;28;20443;-72
2022/07/25 06:26:45;;;;;;;8.43;7.63;;;;;;;-143.84;72.44;45009.09;5088022;28;20447;-72
2022/07/25 06:29:12;;;;;;;12.77;7.90;;;;;;;-143.84;71.91;45009.09;5088525;28;20969;-73
2022/07/25 06:31:39;;;;;;;9.87;7.90;;;;;;;-143.84;71.82;45005.28;5088591;28;20956;-73
2022/07/25 06:34:06;;;;;;;8.37;7.57;;;;;;;-143.84;71.74;45012.88;5088503;28;20500;-72
2022/07/25 06:36:33;;;;;;;16.33;7.63;;;;;;;-143.84;71.62;45005.28;5087375;28;20475;-72
2022/07/25 06:39:01;;;;;;;9.33;8.00;;;;;;;-143.84;69.49;44984.31;5084997;28;20520;-72
2022/07/25 06:41:28;;;;;;;8.87;7.97;;;;;;;-143.84;69.83;45041.44;5087929;28;20505;-73
2022/07/25 06:43:57;;;;;;;9.03;7.63;;;;;;;-143.84;68.83;45009.09;5087944;28;20440;-73
2022/07/25 06:46:28;;;;;;;10.70;7.40;;;;;;;-143.84;69.94;44997.66;5085503;28;20450;-73
2022/07/25 06:48:55;;;;;;;11.97;6.80;;;;;;;-143.84;69.92;44988.13;5091082;28;20526;-73
2022/07/25 06:51:22;;;;;;;9.90;7.73;;;;;;;-143.84;68.61;45010.97;5092063;28;20960;-73
2022/07/25 06:53:50;;;;;;;11.30;6.70;;;;;;;-143.84;67.07;45007.19;5092030;28;20436;-73
2022/07/25 06:56:18;;;;;;;9.83;7.60;;;;;;;-143.84;66.21;45018.59;5092097;28;20479;-73
2022/07/25 06:58:45;;;;;;;7.63;6.83;;;;;;;-143.84;65.19;45012.88;5092189;28;20428;-72
2022/07/25 07:01:13;;;;;;;10.70;6.40;;;;;;;-143.84;63.41;44976.72;5091833;28;20838;-72
2022/07/25 07:03:41;;;;;;;11.23;6.30;;;;;;;-143.84;60.50;44971.00;5092373;28;20436;-72
2022/07/25 07:06:12;;;;;;;5.77;5.37;;;;;;;-143.84;60.40;44982.41;5092305;28;20454;-73
2022/07/25 07:08:39;;;;;;;17.47;6.53;;;;;;;-143.84;59.02;44961.47;5092136;28;20970;-73
2022/07/25 07:11:07;;;;;;;5.97;5.43;;;;;;;-143.84;58.52;44967.19;5091609;28;20436;-73
2022/07/25 07:13:35;;;;;;;6.60;5.83;;;;;;;-143.84;57.85;44967.19;5092443;28;20521;-73
2022/07/25 09:11:49;;;;;;;10.17;9.27;;;;;;;-143.84;54.87;44953.88;5076817;28;20513;-73
2022/07/25 09:14:17;;;;;;;10.50;9.50;;;;;;;-143.84;52.29;44951.97;5090547;28;20859;-73
2022/07/25 09:16:45;;;;;;;14.83;9.70;;;;;;;-143.84;52.26;44925.31;5089622;28;20494;-73
2022/07/25 09:19:14;;;;;;;18.47;10.67;;;;;;;-143.84;50.10;44913.88;5083685;28;20460;-73
2022/07/25 09:21:42;;;;;;;9.17;8.27;;;;;;;-143.84;49.88;44921.50;5069628;28;20445;-73
2022/07/25 09:24:12;;;;;;;8.90;8.00;;;;;;;-143.84;48.88;44925.31;5069587;28;20514;-73
2022/07/25 09:26:49;;;;;;;12.07;8.80;;;;;;;-143.84;50.07;44942.44;5062024;28;20456;-73
2022/07/25 09:29:18;;;;;;;16.53;9.60;;;;;;;-143.84;50.79;44915.78;5074186;28;20869;-73
2022/07/25 09:31:46;;;;;;;11.20;8.70;;;;;;;-143.84;51.80;44942.44;5089748;28;20451;-73
2022/07/25 09:34:16;;;;;;;15.93;9.10;;;;;;;-143.84;50.82;44948.16;5089528;28;20471;-73
2022/07/25 09:36:52;;;;;;;10.77;9.53;;;;;;;-143.84;51.60;44944.34;5089498;28;20459;-73
2022/07/25 09:39:19;;;;;;;12.13;9.90;;;;;;;-143.84;52.42;44934.81;5089452;28;20544;-73
2022/07/25 09:41:49;;;;;;;12.00;9.73;;;;;;;-143.84;52.23;44934.81;5089367;28;20440;-73
2022/07/25 09:44:18;;;;;;;9.70;8.80;;;;;;;-143.84;52.95;44919.59;5089580;28;20933;-73
2022/07/25 09:46:45;;;;;;;15.83;9.87;;;;;;;-143.84;54.96;44917.69;5089618;28;20440;-73
2022/07/25 09:49:13;;;;;;;11.30;9.90;;;;;;;-143.84;54.01;44932.91;5088856;28;20450;-73
2022/07/25 09:51:41;;;;;;;10.00;8.80;;;;;;;-143.84;54.53;44919.59;5089033;28;20493;-73
2022/07/25 09:54:08;;;;;;;13.37;9.10;;;;;;;-143.84;53.85;44929.09;5089177;28;20964;-73
2022/07/25 09:56:36;;;;;;;10.10;8.83;;;;;;;-143.84;53.85;44950.06;5081221;28;21055;-73
2022/07/25 09:59:05;;;;;;;9.87;8.87;;;;;;;-143.84;54.32;44944.34;5073047;28;21344;-73
2022/07/25 10:01:36;;;;;;;13.50;9.73;;;;;;;-143.84;55.37;44940.53;5065212;28;20457;-73
2022/07/25 10:04:14;;;;;;;9.50;8.63;;;;;;;-143.84;54.20;44955.75;5069543;28;21229;-73
2022/07/25 10:06:50;;;;;;;10.00;9.10;;;;;;;-143.84;53.51;44929.09;5067471;28;20495;-73
2022/07/25 10:09:18;;;;;;;13.30;9.60;;;;;;;-143.84;53.59;44923.41;5064182;28;20456;-73
2022/07/25 10:12:04;;;;;;;10.33;8.93;;;;;;;-143.84;53.11;44921.50;5067694;28;20437;-73
2022/07/25 10:14:33;;;;;;;10.77;8.13;;;;;;;-143.84;53.21;44921.50;5070153;28;20456;-73
2022/07/25 10:17:01;;;;;;;15.00;8.80;;;;;;;-143.84;52.53;44910.06;5068439;28;20488;-73
2022/07/25 10:19:42;;;;;;;14.20;9.33;;;;;;;-143.84;52.24;44931.00;5068140;28;21052;-73
2022/07/25 10:22:10;;;;;;;9.57;8.57;;;;;;;-143.84;52.26;44917.69;5068571;28;20624;-73
2022/07/25 10:24:38;;;;;;;10.83;8.30;;;;;;;-143.84;52.29;44917.69;5075143;28;20540;-73
2022/07/25 10:27:10;;;;;;;10.83;7.80;;;;;;;-143.84;50.90;44917.69;5077180;28;20460;-73
2022/07/25 10:29:41;;;;;;;10.83;7.77;;;;;;;-143.84;51.29;44908.16;5079858;28;20449;-73
2022/07/25 10:32:09;;;;;;;11.67;8.60;;;;;;;-143.84;51.50;44915.78;5076601;28;20476;-73
2022/07/25 10:34:37;;;;;;;11.23;6.90;;;;;;;-143.84;51.41;44921.50;5071304;28;20768;-73
2022/07/25 10:37:16;;;;;;;11.33;7.90;;;;;;;-143.84;51.90;44932.91;5071912;28;20993;-73
2022/07/25 10:39:45;;;;;;;16.63;8.17;;;;;;;-143.84;51.03;44892.94;5071748;28;21029;-73
2022/07/25 10:42:14;;;;;;;7.90;7.20;;;;;;;-143.84;50.94;44927.19;5075482;28;20451;-73
2022/07/25 10:44:45;;;;;;;8.40;7.60;;;;;;;-143.84;50.37;44925.31;5074891;28;20449;-73
2022/07/25 10:47:13;;;;;;;11.83;8.10;;;;;;;-143.84;49.42;44894.84;5072673;28;20460;-73
2022/07/25 10:49:43;;;;;;;7.50;6.70;;;;;;;-143.84;49.37;44894.84;5074808;28;20543;-73
2022/07/25 10:52:16;;;;;;;9.10;7.30;;;;;;;-143.84;49.17;44898.66;5071696;28;20951;-73
2022/07/25 10:54:53;;;;;;;10.90;8.37;;;;;;;-143.84;48.25;44883.41;5063072;28;20453;-73
2022/07/25 10:57:21;;;;;;;9.67;7.93;;;;;;;-143.84;47.75;44915.78;5071740;28;20518;-73
2022/07/25 10:59:50;;;;;;;10.67;7.63;;;;;;;-143.84;48.18;44917.69;5068841;28;20839;-73
2022/07/25 11:02:18;;;;;;;11.80;7.80;;;;;;;-143.84;47.33;44910.06;5073234;28;20518;-73
2022/07/25 11:04:46;;;;;;;8.57;7.50;;;;;;;-143.84;47.45;44913.88;5070720;28;20964;-73
2022/07/25 11:07:16;;;;;;;10.87;7.77;;;;;;;-143.84;47.83;44910.06;5071378;28;20514;-73
2022/07/25 11:09:44;;;;;;;10.23;8.17;;;;;;;-143.84;48.00;44887.22;5074020;28;20486;-73
2022/07/25 11:12:16;;;;;;;8.50;7.80;;;;;;;-143.84;49.37;44921.50;5091475;28;20533;-73
2022/07/25 11:14:43;;;;;;;8.10;6.80;;;;;;;-143.84;49.34;44911.97;5091399;28;20444;-73
2022/07/25 11:17:14;;;;;;;9.33;8.47;;;;;;;-143.84;50.03;44932.91;5091352;28;20490;-73
2022/07/25 11:19:43;;;;;;;8.33;7.63;;;;;;;-143.84;51.19;44870.09;5090245;28;20458;-73
2022/07/25 11:22:11;;;;;;;9.13;8.30;;;;;;;-143.84;51.73;44925.31;5090260;28;20846;-73
2022/07/25 11:24:40;;;;;;;19.90;8.70;;;;;;;-143.84;51.29;44931.00;5090468;28;20448;-73
2022/07/25 11:27:08;;;;;;;10.83;8.77;;;;;;;-143.84;53.00;44913.88;5090619;28;20487;-73
2022/07/25 11:29:37;;;;;;;10.10;8.63;;;;;;;-143.84;55.54;44896.75;5090737;28;21237;-73
2022/07/25 11:32:06;;;;;;;9.53;8.70;;;;;;;-143.84;55.81;44913.88;5090872;28;20889;-73
2022/07/25 11:34:37;;;;;;;11.23;8.67;;;;;;;-143.84;55.11;44892.94;5090529;28;20443;-73
2022/07/25 11:37:07;;;;;;;9.13;8.30;;;;;;;-143.84;55.35;44919.59;5091211;28;20483;-73
2022/07/25 11:39:37;;;;;;;14.73;8.50;;;;;;;-143.84;54.85;44931.00;5091102;28;20455;-73
2022/07/25 11:42:06;;;;;;;10.33;8.73;;;;;;;-143.84;54.54;44917.69;5090820;28;20452;-73
2022/07/25 11:44:36;;;;;;;15.23;9.20;;;;;;;-143.84;56.94;44923.41;5090885;28;20452;-73
2022/07/25 11:47:03;;;;;;;12.90;7.80;;;;;;;-143.84;54.36;44927.19;5090914;28;20431;-73
2022/07/25 11:49:31;;;;;;;14.07;7.50;;;;;;;-143.84;54.23;44942.44;5090729;28;20463;-73
2022/07/25 11:51:59;;;;;;;14.60;8.17;;;;;;;-143.84;54.22;44923.41;5090017;28;20521;-73
2022/07/25 11:54:27;;;;;;;14.03;7.80;;;;;;;-143.84;53.79;44906.25;5090304;28;20941;-73
2022/07/25 11:56:54;;;;;;;7.70;7.03;;;;;;;-143.84;54.21;44923.41;5090248;28;20447;-73
2022/07/25 11:59:21;;;;;;;14.23;6.80;;;;;;;-143.84;54.87;44919.59;5090338;28;20443;-73
2022/07/25 12:01:48;;;;;;;10.93;7.73;;;;;;;-143.84;55.85;44915.78;5090192;28;20448;-73
2022/07/25 12:04:17;;;;;;;12.50;7.60;;;;;;;-143.84;57.03;44929.09;5086296;28;20478;-73
2022/07/25 12:06:46;;;;;;;8.43;7.53;;;;;;;-143.84;58.64;44925.31;5090096;28;20452;-73
2022/07/25 12:09:16;;;;;;;9.00;8.10;;;;;;;-143.84;59.98;44911.97;5090152;28;20521;-73
2022/07/25 12:11:44;;;;;;;8.80;8.00;;;;;;;-143.84;60.03;44950.06;5090399;28;20456;-73
2022/07/25 12:14:12;;;;;;;11.00;7.27;;;;;;;-143.84;61.73;44948.16;5090178;28;20455;-73
2022/07/25 12:16:40;;;;;;;8.80;7.07;;;;;;;-143.84;61.58;44932.91;5090347;28;20451;-73
2022/07/25 12:19:10;;;;;;;8.00;6.33;;;;;;;-143.84;61.15;44963.38;5089796;28;20479;-73
2022/07/25 12:21:37;;;;;;;12.20;7.40;;;;;;;-143.84;62.14;44944.34;5090144;28;20466;-72
2022/07/25 12:24:05;;;;;;;9.43;6.90;;;;;;;-143.84;62.74;44959.56;5089854;28;20444;-72
2022/07/25 12:26:34;;;;;;;11.67;8.40;;;;;;;-143.84;63.06;44944.34;5089653;28;20531;-73
2022/07/25 12:29:01;;;;;;;14.07;8.03;;;;;;;-143.84;63.19;44963.38;5089744;28;20497;-72
2022/07/25 12:31:29;;;;;;;18.80;9.00;;;;;;;-143.84;63.52;44946.25;5089307;28;20447;-73
2022/07/25 12:33:56;;;;;;;10.90;8.13;;;;;;;-143.84;63.21;44944.34;5086692;28;20447;-73
2022/07/25 12:36:23;;;;;;;11.70;7.17;;;;;;;-143.84;62.98;44931.00;5089647;28;20537;-73
2022/07/25 12:38:51;;;;;;;8.43;7.53;;;;;;;-143.84;62.63;44946.25;5089530;28;20553;-73
2022/07/25 12:41:21;;;;;;;8.17;7.37;;;;;;;-143.84;63.46;44951.97;5089690;28;20452;-72
2022/07/25 12:43:50;;;;;;;10.30;7.73;;;;;;;-143.84;62.85;44927.19;5088213;28;20976;-73
2022/07/25 12:46:17;;;;;;;12.00;8.00;;;;;;;-143.84;62.98;44950.06;5087471;28;20929;-72
2022/07/25 12:48:44;;;;;;;13.90;7.60;;;;;;;-143.84;63.37;44969.09;5089327;28;20455;-73
2022/07/25 12:51:12;;;;;;;9.50;7.93;;;;;;;-143.84;63.20;44965.28;5089228;28;20447;-72
2022/07/25 12:53:39;;;;;;;8.37;7.60;;;;;;;-143.84;62.29;44946.25;5088948;28;20447;-72
2022/07/25 12:56:06;;;;;;;9.57;8.40;;;;;;;-143.84;61.14;44969.09;5089229;28;20829;-73
2022/07/25 12:58:33;;;;;;;9.67;7.60;;;;;;;-143.84;61.74;44929.09;5086514;28;20772;-73
2022/07/25 13:01:02;;;;;;;15.20;8.03;;;;;;;-143.84;62.56;44951.97;5089263;28;20961;-72
2022/07/25 13:03:29;;;;;;;14.73;7.77;;;;;;;-143.84;62.16;44946.25;5088921;28;20463;-72
2022/07/25 13:05:56;;;;;;;12.47;8.03;;;;;;;-143.84;62.74;44980.53;5088994;28;20491;-72
2022/07/25 13:08:24;;;;;;;21.73;8.57;;;;;;;-143.84;63.87;44932.91;5088422;28;20501;-72
2022/07/25 13:10:51;;;;;;;14.27;8.13;;;;;;;-143.84;62.89;44961.47;5086755;28;21368;-72
2022/07/25 13:13:19;;;;;;;10.10;8.70;;;;;;;-143.84;61.89;44963.38;5088846;28;20452;-72
2022/07/25 13:15:46;;;;;;;11.73;8.73;;;;;;;-143.84;61.17;44967.19;5085932;28;20513;-72
2022/07/25 13:18:14;;;;;;;16.47;8.00;;;;;;;-143.84;60.84;44946.25;5088960;28;20472;-72